createdAt,value
2019-06-26T00:01:13.872Z,26.83
2019-06-26T00:04:19.763Z,26.71
2019-06-26T00:07:24.492Z,26.69
2019-06-26T00:10:29.941Z,26.62
2019-06-26T00:13:35.334Z,26.60
2019-06-26T00:16:40.599Z,26.52
2019-06-26T00:19:45.695Z,26.41
2019-06-26T00:22:50.561Z,26.39
2019-06-26T00:25:55.413Z,26.39
2019-06-26T00:29:00.145Z,26.38
2019-06-26T00:32:04.889Z,26.38
2019-06-26T00:35:10.417Z,26.31
2019-06-26T00:38:15.736Z,26.24
2019-06-26T00:41:20.927Z,26.21
2019-06-26T00:44:25.661Z,26.11
2019-06-26T00:47:30.402Z,26.14
2019-06-26T00:50:35.462Z,26.11
2019-06-26T00:53:40.216Z,26.09
2019-06-26T00:56:44.996Z,26.08
2019-06-26T00:59:49.736Z,26.00
2019-06-26T01:02:54.533Z,25.99
2019-06-26T01:05:59.644Z,25.98
2019-06-26T01:09:06.816Z,25.93
2019-06-26T01:15:36.610Z,25.78
2019-06-26T01:18:41.316Z,25.75
2019-06-26T01:21:46.053Z,25.73
2019-06-26T01:24:50.802Z,25.69
2019-06-26T01:27:55.615Z,25.64
2019-06-26T01:31:00.365Z,25.65
2019-06-26T01:34:05.231Z,25.57
2019-06-26T01:37:09.976Z,25.53
2019-06-26T01:40:15.653Z,25.48
2019-06-26T01:43:21.069Z,25.42
2019-06-26T01:46:26.208Z,25.43
2019-06-26T01:49:30.965Z,25.42
2019-06-26T01:52:35.869Z,25.39
2019-06-26T01:55:41.190Z,25.37
2019-06-26T01:58:46.298Z,25.21
2019-06-26T02:01:51.303Z,25.15
2019-06-26T02:04:56.775Z,25.21
2019-06-26T02:08:01.630Z,24.97
2019-06-26T02:11:07.047Z,24.95
2019-06-26T02:14:11.873Z,24.96
2019-06-26T02:17:16.922Z,24.94
2019-06-26T02:20:21.747Z,24.80
2019-06-26T02:23:26.898Z,24.77
2019-06-26T02:26:31.651Z,24.77
2019-06-26T02:29:36.489Z,24.79
2019-06-26T02:32:41.318Z,24.80
2019-06-26T02:35:46.405Z,24.80
2019-06-26T02:38:51.268Z,24.83
2019-06-26T02:41:57.052Z,24.86
2019-06-26T02:45:02.777Z,24.85
2019-06-26T02:48:07.752Z,24.93
2019-06-26T02:51:12.501Z,24.95
2019-06-26T02:54:17.235Z,24.87
2019-06-26T02:57:22.385Z,24.84
2019-06-26T03:00:27.407Z,24.92
2019-06-26T03:03:32.455Z,24.87
2019-06-26T03:06:37.656Z,24.80
2019-06-26T03:09:42.405Z,24.78
2019-06-26T03:12:47.186Z,24.76
2019-06-26T03:15:52.048Z,24.66
2019-06-26T03:18:57.151Z,24.60
2019-06-26T03:22:02.134Z,24.56
2019-06-26T03:25:08.147Z,24.46
2019-06-26T03:28:13.097Z,24.57
2019-06-26T03:31:20.700Z,24.42
2019-06-26T03:34:25.458Z,24.44
2019-06-26T03:37:30.584Z,24.41
2019-06-26T03:40:35.484Z,24.38
2019-06-26T03:43:40.250Z,24.39
2019-06-26T03:46:45.076Z,24.28
2019-06-26T03:49:50.049Z,24.32
2019-06-26T03:52:54.865Z,24.36
2019-06-26T03:55:59.934Z,24.37
2019-06-26T03:59:05.122Z,24.35
2019-06-26T04:02:09.874Z,24.31
2019-06-26T04:05:14.732Z,24.33
2019-06-26T04:08:19.456Z,24.40
2019-06-26T04:11:24.508Z,24.35
2019-06-26T04:14:29.500Z,24.38
2019-06-26T04:17:34.528Z,24.37
2019-06-26T04:20:39.358Z,24.36
2019-06-26T04:23:44.217Z,24.36
2019-06-26T04:26:49.646Z,24.33
2019-06-26T04:29:54.742Z,24.35
2019-06-26T04:33:00.029Z,24.38
2019-06-26T04:36:04.832Z,24.41
2019-06-26T04:39:09.784Z,24.49
2019-06-26T04:42:14.927Z,24.55
2019-06-26T04:45:20.200Z,24.63
2019-06-26T04:48:25.367Z,24.66
2019-06-26T04:51:30.386Z,24.72
2019-06-26T04:54:35.156Z,24.73
2019-06-26T04:57:40.687Z,24.84
2019-06-26T05:00:46.081Z,24.89
2019-06-26T05:03:51.206Z,24.90
2019-06-26T05:06:56.336Z,24.97
2019-06-26T05:10:01.293Z,25.01
2019-06-26T05:13:06.516Z,25.07
2019-06-26T05:16:15.648Z,25.13
2019-06-26T05:19:17.979Z,25.22
2019-06-26T05:22:23.181Z,25.29
2019-06-26T05:25:28.367Z,25.34
2019-06-26T05:28:33.490Z,25.37
2019-06-26T05:31:39.827Z,25.41
2019-06-26T05:34:45.185Z,25.56
2019-06-26T05:37:50.092Z,25.64
2019-06-26T05:40:55.259Z,25.69
2019-06-26T05:44:00.689Z,25.77
2019-06-26T05:47:07.161Z,25.90
2019-06-26T05:50:13.120Z,25.99
2019-06-26T05:53:17.900Z,26.03
2019-06-26T05:56:22.640Z,26.13
2019-06-26T05:59:27.715Z,26.25
2019-06-26T06:02:32.910Z,26.34
2019-06-26T06:05:38.110Z,26.40
2019-06-26T06:08:43.170Z,26.47
2019-06-26T06:11:48.329Z,26.48
2019-06-26T06:14:53.074Z,26.55
2019-06-26T06:17:57.896Z,26.53
2019-06-26T06:21:02.968Z,26.57
2019-06-26T06:24:08.057Z,26.69
2019-06-26T06:27:13.112Z,26.69
2019-06-26T06:30:18.480Z,26.71
2019-06-26T06:33:23.262Z,26.73
2019-06-26T06:36:28.111Z,26.95
2019-06-26T06:39:33.130Z,27.13
2019-06-26T06:42:38.105Z,27.24
2019-06-26T06:45:43.066Z,27.35
2019-06-26T06:48:47.815Z,27.56
2019-06-26T06:51:52.898Z,27.78
2019-06-26T06:54:57.679Z,27.88
2019-06-26T06:58:02.921Z,27.90
2019-06-26T07:01:07.990Z,27.95
2019-06-26T07:04:12.733Z,27.92
2019-06-26T07:07:17.861Z,27.81
2019-06-26T07:10:22.769Z,28.00
2019-06-26T07:13:27.968Z,28.23
2019-06-26T07:16:32.723Z,28.32
2019-06-26T07:19:37.791Z,28.54
2019-06-26T07:22:42.560Z,28.66
2019-06-26T07:25:47.321Z,28.78
2019-06-26T07:28:52.601Z,28.63
2019-06-26T07:31:58.808Z,28.59
2019-06-26T07:35:04.017Z,28.38
2019-06-26T07:38:09.547Z,28.67
2019-06-26T07:41:14.919Z,28.86
2019-06-26T07:44:20.012Z,29.06
2019-06-26T07:47:41.547Z,29.33
2019-06-26T07:50:32.720Z,29.34
2019-06-26T07:53:37.679Z,29.61
2019-06-26T07:56:42.773Z,29.45
2019-06-26T07:59:47.604Z,29.31
2019-06-26T08:02:52.677Z,29.47
2019-06-26T08:05:57.451Z,29.46
2019-06-26T08:09:02.638Z,29.44
2019-06-26T08:12:08.802Z,29.57
2019-06-26T08:15:15.280Z,29.70
2019-06-26T08:18:20.014Z,29.73
2019-06-26T08:21:24.839Z,29.67
2019-06-26T08:24:29.978Z,29.81
2019-06-26T08:27:35.203Z,29.88
2019-06-26T08:30:40.069Z,30.02
2019-06-26T08:33:44.853Z,29.96
2019-06-26T08:36:49.839Z,30.17
2019-06-26T08:39:54.591Z,30.29
2019-06-26T08:42:59.765Z,30.48
2019-06-26T08:46:04.582Z,30.49
2019-06-26T08:49:24.333Z,30.44
2019-06-26T08:52:16.818Z,30.76
2019-06-26T08:55:22.696Z,30.98
2019-06-26T08:58:28.558Z,31.24
2019-06-26T09:01:33.316Z,31.28
2019-06-26T09:04:38.058Z,31.42
2019-06-26T09:07:42.843Z,31.36
2019-06-26T09:10:47.642Z,31.41
2019-06-26T09:13:52.724Z,31.66
2019-06-26T09:16:57.588Z,31.58
2019-06-26T09:20:02.502Z,31.57
2019-06-26T09:23:07.481Z,31.68
2019-06-26T09:26:12.601Z,31.91
2019-06-26T09:29:17.777Z,32.10
2019-06-26T09:32:22.540Z,32.47
2019-06-26T09:35:28.310Z,32.78
2019-06-26T09:38:33.035Z,32.74
2019-06-26T09:41:37.818Z,32.67
2019-06-26T09:44:42.664Z,32.78
2019-06-26T09:47:47.736Z,32.82
2019-06-26T09:50:52.995Z,32.89
2019-06-26T09:53:59.046Z,32.98
2019-06-26T09:57:03.868Z,32.99
2019-06-26T10:00:11.355Z,33.24
2019-06-26T10:03:16.267Z,33.52
2019-06-26T10:06:21.030Z,33.78
2019-06-26T10:09:25.828Z,33.82
2019-06-26T10:12:30.573Z,33.67
2019-06-26T10:15:35.369Z,33.46
2019-06-26T10:18:40.482Z,33.61
2019-06-26T10:21:45.214Z,33.79
2019-06-26T10:24:50.269Z,34.12
2019-06-26T10:27:56.282Z,34.35
2019-06-26T10:31:01.356Z,34.13
2019-06-26T10:34:09.818Z,34.17
2019-06-26T10:37:12.866Z,34.16
2019-06-26T10:40:17.786Z,34.58
2019-06-26T10:43:22.743Z,34.93
2019-06-26T10:46:28.082Z,35.28
2019-06-26T10:49:33.085Z,35.44
2019-06-26T10:52:37.878Z,35.41
2019-06-26T10:55:42.711Z,35.31
2019-06-26T10:58:47.439Z,35.23
2019-06-26T11:01:52.270Z,35.19
2019-06-26T11:04:57.366Z,35.09
2019-06-26T11:08:02.450Z,35.03
2019-06-26T11:11:07.202Z,35.31
2019-06-26T11:14:12.248Z,35.57
2019-06-26T11:17:17.477Z,35.71
2019-06-26T11:20:22.370Z,36.01
2019-06-26T11:23:27.557Z,36.18
2019-06-26T11:26:32.347Z,36.33
2019-06-26T11:29:37.751Z,36.46
2019-06-26T11:32:42.486Z,36.35
2019-06-26T11:35:47.339Z,36.34
2019-06-26T11:38:52.181Z,36.38
2019-06-26T11:41:56.959Z,36.34
2019-06-26T11:45:01.790Z,36.30
2019-06-26T11:48:06.680Z,35.81
2019-06-26T11:51:11.414Z,35.84
2019-06-26T11:54:18.070Z,36.20
2019-06-26T11:57:22.923Z,36.42
2019-06-26T12:00:28.038Z,36.60
2019-06-26T12:03:33.460Z,36.54
2019-06-26T12:06:38.867Z,36.55
2019-06-26T12:09:43.902Z,36.61
2019-06-26T12:12:48.723Z,36.69
2019-06-26T12:15:54.444Z,36.74
2019-06-26T12:18:59.202Z,36.61
2019-06-26T12:22:04.136Z,36.72
2019-06-26T12:25:10.287Z,37.09
2019-06-26T12:28:15.057Z,36.88
2019-06-26T12:31:20.095Z,36.91
2019-06-26T12:34:24.842Z,36.93
2019-06-26T12:37:37.768Z,36.73
2019-06-26T12:40:37.243Z,36.89
2019-06-26T12:43:42.084Z,36.74
2019-06-26T12:46:46.885Z,36.79
2019-06-26T12:49:51.901Z,36.81
2019-06-26T12:52:56.652Z,36.80
2019-06-26T12:56:01.909Z,37.07
2019-06-26T12:59:06.597Z,37.25
2019-06-26T13:02:11.348Z,37.41
2019-06-26T13:05:16.833Z,37.61
2019-06-26T13:08:21.891Z,37.69
2019-06-26T13:11:27.172Z,37.95
2019-06-26T13:14:31.962Z,37.96
2019-06-26T13:17:37.018Z,37.87
2019-06-26T13:20:52.323Z,37.70
2019-06-26T13:23:48.683Z,37.88
2019-06-26T13:26:54.681Z,37.61
2019-06-26T13:29:59.490Z,37.83
2019-06-26T13:33:04.449Z,38.00
2019-06-26T13:36:09.565Z,37.80
2019-06-26T13:39:14.935Z,37.79
2019-06-26T13:42:20.099Z,38.01
2019-06-26T13:45:24.918Z,38.17
2019-06-26T13:48:29.661Z,38.11
2019-06-26T13:51:35.061Z,37.81
2019-06-26T13:54:40.369Z,37.93
2019-06-26T13:57:45.146Z,37.98
2019-06-26T14:00:50.156Z,37.97
2019-06-26T14:03:55.873Z,38.26
2019-06-26T14:07:00.642Z,38.59
2019-06-26T14:10:05.875Z,38.10
2019-06-26T14:13:10.714Z,38.17
2019-06-26T14:16:16.586Z,38.67
2019-06-26T14:19:21.411Z,38.77
2019-06-26T14:22:26.204Z,38.76
2019-06-26T14:25:31.530Z,38.95
2019-06-26T14:28:39.361Z,38.84
2019-06-26T14:31:44.464Z,39.14
2019-06-26T14:34:49.516Z,38.78
2019-06-26T14:37:54.869Z,38.90
2019-06-26T14:41:00.227Z,38.77
2019-06-26T14:44:05.159Z,38.95
2019-06-26T14:47:10.547Z,39.21
2019-06-26T14:50:15.563Z,38.69
2019-06-26T14:53:20.940Z,39.05
2019-06-26T14:56:25.680Z,38.92
2019-06-26T14:59:30.446Z,38.92
2019-06-26T15:02:35.257Z,38.95
2019-06-26T15:05:40.310Z,39.00
2019-06-26T15:08:45.674Z,39.44
2019-06-26T15:11:50.502Z,39.33
2019-06-26T15:14:55.254Z,39.27
2019-06-26T15:18:00.095Z,39.26
2019-06-26T15:21:04.989Z,39.62
2019-06-26T15:24:10.024Z,39.53
2019-06-26T15:27:14.746Z,39.73
2019-06-26T15:30:19.953Z,39.92
2019-06-26T15:33:24.894Z,39.85
2019-06-26T15:36:29.930Z,39.11
2019-06-26T15:39:34.944Z,39.03
2019-06-26T15:42:39.755Z,39.17
2019-06-26T15:45:44.599Z,38.93
2019-06-26T15:48:50.515Z,38.89
2019-06-26T15:51:56.305Z,39.04
2019-06-26T15:55:01.139Z,39.26
2019-06-26T15:58:05.926Z,39.38
2019-06-26T16:01:10.777Z,39.25
2019-06-26T16:04:16.352Z,39.23
2019-06-26T16:07:21.235Z,39.37
2019-06-26T16:10:26.005Z,39.30
2019-06-26T16:13:30.835Z,39.00
2019-06-26T16:16:37.660Z,39.17
2019-06-26T16:19:42.386Z,39.09
2019-06-26T16:22:47.161Z,39.34
2019-06-26T16:25:52.314Z,38.81
2019-06-26T16:28:57.098Z,39.19
2019-06-26T16:32:02.138Z,39.24
2019-06-26T16:35:11.990Z,39.11
2019-06-26T16:38:14.727Z,39.28
2019-06-26T16:41:20.350Z,39.61
2019-06-26T16:44:25.087Z,39.62
2019-06-26T16:47:30.259Z,39.61
2019-06-26T16:50:35.428Z,39.64
2019-06-26T16:53:40.559Z,39.62
2019-06-26T16:56:45.921Z,39.59
2019-06-26T16:59:51.172Z,39.30
2019-06-26T17:02:56.351Z,39.36
2019-06-26T17:06:01.401Z,39.39
2019-06-26T17:09:08.367Z,39.34
2019-06-26T17:12:13.145Z,39.28
2019-06-26T17:15:18.348Z,38.78
2019-06-26T17:18:23.529Z,38.74
2019-06-26T17:21:28.335Z,38.57
2019-06-26T17:24:33.960Z,38.48
2019-06-26T17:27:38.693Z,38.48
2019-06-26T17:30:43.546Z,38.57
2019-06-26T17:33:48.609Z,38.60
2019-06-26T17:36:53.441Z,38.51
2019-06-26T17:39:58.576Z,38.42
2019-06-26T17:43:12.514Z,38.42
2019-06-26T17:46:10.312Z,38.25
2019-06-26T17:49:16.126Z,38.00
2019-06-26T17:52:20.894Z,37.95
2019-06-26T17:55:25.703Z,37.86
2019-06-26T17:58:30.477Z,37.81
2019-06-26T18:01:35.492Z,37.74
2019-06-26T18:04:40.272Z,37.73
2019-06-26T18:07:45.382Z,37.67
2019-06-26T18:10:50.866Z,37.63
2019-06-26T18:13:55.682Z,37.48
2019-06-26T18:17:00.847Z,37.40
2019-06-26T18:20:06.263Z,37.27
2019-06-26T18:23:12.442Z,37.14
2019-06-26T18:26:17.206Z,36.94
2019-06-26T18:29:22.265Z,36.82
2019-06-26T18:32:27.885Z,36.66
2019-06-26T18:35:33.346Z,36.52
2019-06-26T18:38:38.115Z,36.42
2019-06-26T18:41:43.705Z,36.32
2019-06-26T18:44:48.449Z,36.22
2019-06-26T18:47:54.115Z,36.10
2019-06-26T18:50:59.409Z,36.04
2019-06-26T18:54:04.553Z,36.00
2019-06-26T18:57:09.281Z,35.98
2019-06-26T19:00:15.591Z,36.06
2019-06-26T19:03:20.341Z,35.85
2019-06-26T19:06:25.189Z,35.53
2019-06-26T19:09:30.631Z,35.41
2019-06-26T19:12:35.928Z,35.19
2019-06-26T19:15:41.746Z,35.01
2019-06-26T19:18:47.384Z,35.02
2019-06-26T19:21:52.168Z,35.06
2019-06-26T19:24:57.166Z,35.02
2019-06-26T19:28:01.892Z,34.98
2019-06-26T19:31:06.730Z,34.92
2019-06-26T19:34:11.466Z,34.80
2019-06-26T19:37:16.474Z,34.71
2019-06-26T19:40:23.933Z,34.63
2019-06-26T19:43:28.104Z,34.55
2019-06-26T19:46:32.923Z,34.45
2019-06-26T19:49:37.728Z,34.31
2019-06-26T19:52:42.492Z,33.92
2019-06-26T19:55:47.678Z,33.62
2019-06-26T19:58:52.615Z,33.55
2019-06-26T20:01:57.671Z,33.50
2019-06-26T20:05:02.428Z,33.44
2019-06-26T20:08:07.267Z,33.31
2019-06-26T20:11:12.838Z,33.28
2019-06-26T20:14:17.636Z,33.19
2019-06-26T20:23:33.797Z,33.03
2019-06-26T20:29:43.845Z,32.91
2019-06-26T21:12:57.261Z,32.05
2019-06-26T21:16:02.304Z,31.94
2019-06-26T21:25:19.421Z,31.76
2019-06-26T22:24:56.192Z,30.12
2019-06-26T22:28:01.007Z,30.02
2019-06-26T23:17:24.266Z,28.98
2019-06-26T23:23:33.969Z,29.01
2019-06-26T23:29:43.816Z,28.90
2019-06-26T23:35:53.773Z,28.69
